sensor_id;sensor_type;location;lat;lon;timestamp;P1;durP1;ratioP1;P2;durP2;ratioP2
52029;SDS011;38043;53.224;6.580;2023-01-25T00:00:38;32.05;;;20.08;;
52029;SDS011;38043;53.224;6.580;2023-01-25T00:03:03;34.03;;;20.67;;
52029;SDS011;38043;53.224;6.580;2023-01-25T00:05:29;33.80;;;21.20;;
52029;SDS011;38043;53.224;6.580;2023-01-25T00:07:54;32.70;;;19.90;;
52029;SDS011;38043;53.224;6.580;2023-01-25T00:10:20;31.88;;;20.60;;
52029;SDS011;38043;53.224;6.580;2023-01-25T00:12:46;32.25;;;19.88;;
52029;SDS011;38043;53.224;6.580;2023-01-25T00:15:11;33.55;;;20.13;;
52029;SDS011;38043;53.224;6.580;2023-01-25T00:17:37;36.08;;;20.90;;
52029;SDS011;38043;53.224;6.580;2023-01-25T00:20:03;34.65;;;20.73;;
52029;SDS011;38043;53.224;6.580;2023-01-25T00:22:29;34.63;;;21.35;;
52029;SDS011;38043;53.224;6.580;2023-01-25T00:24:54;36.72;;;21.08;;
52029;SDS011;38043;53.224;6.580;2023-01-25T00:27:20;36.28;;;21.67;;
52029;SDS011;38043;53.224;6.580;2023-01-25T00:29:46;34.53;;;21.05;;
52029;SDS011;38043;53.224;6.580;2023-01-25T00:34:47;33.85;;;20.35;;
52029;SDS011;38043;53.224;6.580;2023-01-25T00:40:20;32.60;;;18.73;;
52029;SDS011;38043;53.224;6.580;2023-01-25T00:42:45;35.13;;;20.50;;
52029;SDS011;38043;53.224;6.580;2023-01-25T00:45:11;31.60;;;18.30;;
52029;SDS011;38043;53.224;6.580;2023-01-25T00:47:37;31.65;;;19.58;;
52029;SDS011;38043;53.224;6.580;2023-01-25T00:50:03;34.78;;;21.50;;
52029;SDS011;38043;53.224;6.580;2023-01-25T00:52:30;35.38;;;20.35;;
52029;SDS011;38043;53.224;6.580;2023-01-25T00:54:56;34.92;;;19.58;;
52029;SDS011;38043;53.224;6.580;2023-01-25T00:57:21;35.95;;;21.05;;
52029;SDS011;38043;53.224;6.580;2023-01-25T00:59:47;31.85;;;18.73;;
52029;SDS011;38043;53.224;6.580;2023-01-25T01:02:12;33.53;;;18.85;;
52029;SDS011;38043;53.224;6.580;2023-01-25T01:04:38;35.20;;;19.20;;
52029;SDS011;38043;53.224;6.580;2023-01-25T01:07:04;33.92;;;19.60;;
52029;SDS011;38043;53.224;6.580;2023-01-25T01:09:29;41.85;;;21.75;;
52029;SDS011;38043;53.224;6.580;2023-01-25T01:11:56;40.22;;;20.98;;
52029;SDS011;38043;53.224;6.580;2023-01-25T01:14:22;38.30;;;21.90;;
52029;SDS011;38043;53.224;6.580;2023-01-25T01:16:48;37.80;;;21.08;;
52029;SDS011;38043;53.224;6.580;2023-01-25T01:19:14;41.20;;;22.42;;
52029;SDS011;38043;53.224;6.580;2023-01-25T01:21:40;39.90;;;22.50;;
52029;SDS011;38043;53.224;6.580;2023-01-25T01:24:07;41.17;;;23.77;;
52029;SDS011;38043;53.224;6.580;2023-01-25T01:26:33;42.80;;;22.67;;
52029;SDS011;38043;53.224;6.580;2023-01-25T01:28:59;39.85;;;22.40;;
52029;SDS011;38043;53.224;6.580;2023-01-25T01:31:25;41.00;;;22.05;;
52029;SDS011;38043;53.224;6.580;2023-01-25T01:33:51;40.15;;;23.08;;
52029;SDS011;38043;53.224;6.580;2023-01-25T01:36:18;39.78;;;23.17;;
52029;SDS011;38043;53.224;6.580;2023-01-25T01:38:45;39.15;;;22.05;;
52029;SDS011;38043;53.224;6.580;2023-01-25T01:41:11;40.10;;;23.70;;
52029;SDS011;38043;53.224;6.580;2023-01-25T01:43:38;40.75;;;22.83;;
52029;SDS011;38043;53.224;6.580;2023-01-25T01:46:08;38.20;;;22.10;;
52029;SDS011;38043;53.224;6.580;2023-01-25T01:48:58;39.65;;;23.65;;
52029;SDS011;38043;53.224;6.580;2023-01-25T01:54:01;37.85;;;22.33;;
52029;SDS011;38043;53.224;6.580;2023-01-25T01:56:39;40.97;;;22.83;;
52029;SDS011;38043;53.224;6.580;2023-01-25T01:59:10;39.00;;;22.67;;
52029;SDS011;38043;53.224;6.580;2023-01-25T02:01:37;43.80;;;23.65;;
52029;SDS011;38043;53.224;6.580;2023-01-25T02:04:03;40.58;;;23.13;;
52029;SDS011;38043;53.224;6.580;2023-01-25T02:09:00;40.00;;;22.70;;
52029;SDS011;38043;53.224;6.580;2023-01-25T02:11:27;43.25;;;23.25;;
52029;SDS011;38043;53.224;6.580;2023-01-25T02:13:54;39.10;;;23.20;;
52029;SDS011;38043;53.224;6.580;2023-01-25T02:16:23;45.47;;;25.08;;
52029;SDS011;38043;53.224;6.580;2023-01-25T02:18:52;44.47;;;24.52;;
52029;SDS011;38043;53.224;6.580;2023-01-25T02:21:20;44.97;;;24.17;;
52029;SDS011;38043;53.224;6.580;2023-01-25T02:23:55;44.42;;;25.05;;
52029;SDS011;38043;53.224;6.580;2023-01-25T02:26:30;42.90;;;23.55;;
52029;SDS011;38043;53.224;6.580;2023-01-25T02:28:59;43.67;;;23.65;;
52029;SDS011;38043;53.224;6.580;2023-01-25T02:31:28;43.65;;;24.33;;
52029;SDS011;38043;53.224;6.580;2023-01-25T02:33:54;45.22;;;24.92;;
52029;SDS011;38043;53.224;6.580;2023-01-25T02:36:26;45.60;;;24.80;;
52029;SDS011;38043;53.224;6.580;2023-01-25T02:39:13;44.63;;;26.42;;
52029;SDS011;38043;53.224;6.580;2023-01-25T02:41:43;44.60;;;24.85;;
52029;SDS011;38043;53.224;6.580;2023-01-25T02:46:51;46.67;;;24.98;;
52029;SDS011;38043;53.224;6.580;2023-01-25T02:49:16;46.28;;;25.52;;
52029;SDS011;38043;53.224;6.580;2023-01-25T02:51:44;46.13;;;25.15;;
52029;SDS011;38043;53.224;6.580;2023-01-25T02:56:38;46.72;;;24.65;;
52029;SDS011;38043;53.224;6.580;2023-01-25T02:59:07;45.08;;;25.17;;
52029;SDS011;38043;53.224;6.580;2023-01-25T03:01:38;45.83;;;24.98;;
52029;SDS011;38043;53.224;6.580;2023-01-25T03:04:05;47.90;;;26.52;;
52029;SDS011;38043;53.224;6.580;2023-01-25T03:06:31;52.28;;;27.67;;
52029;SDS011;38043;53.224;6.580;2023-01-25T03:08:58;55.75;;;27.25;;
52029;SDS011;38043;53.224;6.580;2023-01-25T03:11:24;51.83;;;28.10;;
52029;SDS011;38043;53.224;6.580;2023-01-25T03:13:49;51.42;;;27.90;;
52029;SDS011;38043;53.224;6.580;2023-01-25T03:16:15;52.95;;;26.92;;
52029;SDS011;38043;53.224;6.580;2023-01-25T03:18:41;55.75;;;29.70;;
52029;SDS011;38043;53.224;6.580;2023-01-25T03:21:07;61.78;;;31.88;;
52029;SDS011;38043;53.224;6.580;2023-01-25T03:23:33;61.00;;;31.63;;
52029;SDS011;38043;53.224;6.580;2023-01-25T03:28:39;59.25;;;31.15;;
52029;SDS011;38043;53.224;6.580;2023-01-25T03:31:05;60.60;;;31.63;;
52029;SDS011;38043;53.224;6.580;2023-01-25T03:33:32;61.50;;;31.98;;
52029;SDS011;38043;53.224;6.580;2023-01-25T03:35:58;66.80;;;34.65;;
52029;SDS011;38043;53.224;6.580;2023-01-25T03:38:24;70.03;;;35.53;;
52029;SDS011;38043;53.224;6.580;2023-01-25T03:40:50;67.93;;;35.22;;
52029;SDS011;38043;53.224;6.580;2023-01-25T03:43:15;69.57;;;34.10;;
52029;SDS011;38043;53.224;6.580;2023-01-25T03:45:42;70.53;;;35.13;;
52029;SDS011;38043;53.224;6.580;2023-01-25T03:48:07;65.32;;;33.85;;
52029;SDS011;38043;53.224;6.580;2023-01-25T03:50:33;64.85;;;33.47;;
52029;SDS011;38043;53.224;6.580;2023-01-25T03:52:59;65.90;;;32.80;;
52029;SDS011;38043;53.224;6.580;2023-01-25T03:55:32;64.43;;;32.72;;
52029;SDS011;38043;53.224;6.580;2023-01-25T03:57:58;70.70;;;34.83;;
52029;SDS011;38043;53.224;6.580;2023-01-25T04:00:23;68.93;;;34.67;;
52029;SDS011;38043;53.224;6.580;2023-01-25T04:02:49;70.18;;;36.25;;
52029;SDS011;38043;53.224;6.580;2023-01-25T04:05:15;74.57;;;35.55;;
52029;SDS011;38043;53.224;6.580;2023-01-25T04:07:41;75.18;;;38.20;;
52029;SDS011;38043;53.224;6.580;2023-01-25T04:10:06;70.75;;;34.33;;
52029;SDS011;38043;53.224;6.580;2023-01-25T04:12:33;75.05;;;36.95;;
52029;SDS011;38043;53.224;6.580;2023-01-25T04:14:58;69.75;;;35.75;;
52029;SDS011;38043;53.224;6.580;2023-01-25T04:17:24;72.13;;;34.47;;
52029;SDS011;38043;53.224;6.580;2023-01-25T04:19:49;72.70;;;35.25;;
52029;SDS011;38043;53.224;6.580;2023-01-25T04:22:15;79.43;;;38.53;;
52029;SDS011;38043;53.224;6.580;2023-01-25T04:24:41;75.65;;;35.55;;
52029;SDS011;38043;53.224;6.580;2023-01-25T04:27:07;67.13;;;34.25;;
52029;SDS011;38043;53.224;6.580;2023-01-25T04:29:33;69.00;;;34.53;;
52029;SDS011;38043;53.224;6.580;2023-01-25T04:31:59;70.57;;;33.55;;
52029;SDS011;38043;53.224;6.580;2023-01-25T04:34:25;76.78;;;35.78;;
52029;SDS011;38043;53.224;6.580;2023-01-25T04:36:50;72.28;;;34.97;;
52029;SDS011;38043;53.224;6.580;2023-01-25T04:39:16;70.85;;;33.63;;
52029;SDS011;38043;53.224;6.580;2023-01-25T04:41:43;69.85;;;35.30;;
52029;SDS011;38043;53.224;6.580;2023-01-25T04:44:08;72.50;;;35.83;;
52029;SDS011;38043;53.224;6.580;2023-01-25T04:46:34;76.22;;;36.88;;
52029;SDS011;38043;53.224;6.580;2023-01-25T04:48:59;72.85;;;36.53;;
52029;SDS011;38043;53.224;6.580;2023-01-25T04:51:25;74.10;;;35.63;;
52029;SDS011;38043;53.224;6.580;2023-01-25T04:53:50;74.85;;;36.03;;
52029;SDS011;38043;53.224;6.580;2023-01-25T04:56:16;73.05;;;34.67;;
52029;SDS011;38043;53.224;6.580;2023-01-25T04:58:42;71.68;;;35.58;;
52029;SDS011;38043;53.224;6.580;2023-01-25T05:01:07;74.68;;;37.13;;
52029;SDS011;38043;53.224;6.580;2023-01-25T05:03:34;77.70;;;36.60;;
52029;SDS011;38043;53.224;6.580;2023-01-25T05:05:59;68.53;;;34.78;;
52029;SDS011;38043;53.224;6.580;2023-01-25T05:08:25;73.45;;;36.45;;
52029;SDS011;38043;53.224;6.580;2023-01-25T05:10:51;72.97;;;35.80;;
52029;SDS011;38043;53.224;6.580;2023-01-25T05:13:16;76.30;;;36.60;;
52029;SDS011;38043;53.224;6.580;2023-01-25T05:15:42;74.53;;;35.67;;
52029;SDS011;38043;53.224;6.580;2023-01-25T05:18:08;74.15;;;36.30;;
52029;SDS011;38043;53.224;6.580;2023-01-25T05:20:34;73.15;;;36.53;;
52029;SDS011;38043;53.224;6.580;2023-01-25T05:22:59;72.72;;;35.30;;
52029;SDS011;38043;53.224;6.580;2023-01-25T05:25:25;74.32;;;37.78;;
52029;SDS011;38043;53.224;6.580;2023-01-25T05:28:09;74.65;;;35.90;;
52029;SDS011;38043;53.224;6.580;2023-01-25T05:30:34;75.85;;;37.53;;
52029;SDS011;38043;53.224;6.580;2023-01-25T05:33:00;79.07;;;39.25;;
52029;SDS011;38043;53.224;6.580;2023-01-25T05:35:26;77.78;;;38.13;;
52029;SDS011;38043;53.224;6.580;2023-01-25T05:37:58;79.50;;;38.40;;
52029;SDS011;38043;53.224;6.580;2023-01-25T05:40:26;71.43;;;36.40;;
52029;SDS011;38043;53.224;6.580;2023-01-25T05:42:55;74.50;;;36.72;;
52029;SDS011;38043;53.224;6.580;2023-01-25T05:45:22;77.45;;;36.60;;
52029;SDS011;38043;53.224;6.580;2023-01-25T05:47:51;75.50;;;38.25;;
52029;SDS011;38043;53.224;6.580;2023-01-25T05:50:18;75.40;;;36.42;;
52029;SDS011;38043;53.224;6.580;2023-01-25T05:52:44;68.47;;;34.22;;
52029;SDS011;38043;53.224;6.580;2023-01-25T05:55:10;73.32;;;37.50;;
52029;SDS011;38043;53.224;6.580;2023-01-25T05:57:36;75.95;;;38.17;;
52029;SDS011;38043;53.224;6.580;2023-01-25T06:00:02;75.22;;;36.85;;
52029;SDS011;38043;53.224;6.580;2023-01-25T06:02:29;73.57;;;36.35;;
52029;SDS011;38043;53.224;6.580;2023-01-25T06:04:56;74.38;;;37.83;;
52029;SDS011;38043;53.224;6.580;2023-01-25T06:07:22;73.35;;;37.40;;
52029;SDS011;38043;53.224;6.580;2023-01-25T06:09:47;73.90;;;37.47;;
52029;SDS011;38043;53.224;6.580;2023-01-25T06:12:13;74.65;;;35.90;;
52029;SDS011;38043;53.224;6.580;2023-01-25T06:14:40;73.70;;;36.15;;
52029;SDS011;38043;53.224;6.580;2023-01-25T06:17:06;73.53;;;35.97;;
52029;SDS011;38043;53.224;6.580;2023-01-25T06:19:31;68.70;;;35.42;;
52029;SDS011;38043;53.224;6.580;2023-01-25T06:21:57;68.80;;;35.03;;
52029;SDS011;38043;53.224;6.580;2023-01-25T06:24:23;74.18;;;36.38;;
52029;SDS011;38043;53.224;6.580;2023-01-25T06:26:48;71.70;;;36.17;;
52029;SDS011;38043;53.224;6.580;2023-01-25T06:29:14;77.13;;;36.95;;
52029;SDS011;38043;53.224;6.580;2023-01-25T06:31:39;80.32;;;38.42;;
52029;SDS011;38043;53.224;6.580;2023-01-25T06:34:05;73.43;;;36.95;;
52029;SDS011;38043;53.224;6.580;2023-01-25T06:36:32;73.35;;;36.10;;
52029;SDS011;38043;53.224;6.580;2023-01-25T06:38:58;75.55;;;37.00;;
52029;SDS011;38043;53.224;6.580;2023-01-25T06:41:24;76.18;;;37.30;;
52029;SDS011;38043;53.224;6.580;2023-01-25T06:43:50;75.97;;;37.42;;
52029;SDS011;38043;53.224;6.580;2023-01-25T06:46:16;84.10;;;39.33;;
52029;SDS011;38043;53.224;6.580;2023-01-25T06:48:42;74.15;;;36.63;;
52029;SDS011;38043;53.224;6.580;2023-01-25T06:51:09;69.70;;;34.25;;
52029;SDS011;38043;53.224;6.580;2023-01-25T06:53:37;69.13;;;34.83;;
52029;SDS011;38043;53.224;6.580;2023-01-25T06:56:05;72.93;;;36.65;;
52029;SDS011;38043;53.224;6.580;2023-01-25T06:58:33;73.78;;;35.30;;
52029;SDS011;38043;53.224;6.580;2023-01-25T07:01:03;72.85;;;37.80;;
52029;SDS011;38043;53.224;6.580;2023-01-25T07:03:31;73.80;;;36.65;;
52029;SDS011;38043;53.224;6.580;2023-01-25T07:06:01;78.05;;;36.63;;
52029;SDS011;38043;53.224;6.580;2023-01-25T07:08:29;75.00;;;37.65;;
52029;SDS011;38043;53.224;6.580;2023-01-25T07:10:56;72.55;;;36.22;;
52029;SDS011;38043;53.224;6.580;2023-01-25T07:13:23;76.07;;;36.15;;
52029;SDS011;38043;53.224;6.580;2023-01-25T07:15:53;72.10;;;35.33;;
52029;SDS011;38043;53.224;6.580;2023-01-25T07:18:20;73.95;;;36.58;;
52029;SDS011;38043;53.224;6.580;2023-01-25T07:20:46;71.95;;;34.72;;
52029;SDS011;38043;53.224;6.580;2023-01-25T07:23:11;73.43;;;35.90;;
52029;SDS011;38043;53.224;6.580;2023-01-25T07:25:41;74.55;;;36.65;;
52029;SDS011;38043;53.224;6.580;2023-01-25T07:28:09;76.43;;;37.20;;
52029;SDS011;38043;53.224;6.580;2023-01-25T07:30:34;80.68;;;37.67;;
52029;SDS011;38043;53.224;6.580;2023-01-25T07:33:00;72.63;;;36.58;;
52029;SDS011;38043;53.224;6.580;2023-01-25T07:35:26;75.30;;;36.92;;
52029;SDS011;38043;53.224;6.580;2023-01-25T07:37:51;74.68;;;37.63;;
52029;SDS011;38043;53.224;6.580;2023-01-25T07:40:17;68.78;;;36.00;;
52029;SDS011;38043;53.224;6.580;2023-01-25T07:42:42;70.03;;;35.63;;
52029;SDS011;38043;53.224;6.580;2023-01-25T07:45:08;69.35;;;35.25;;
52029;SDS011;38043;53.224;6.580;2023-01-25T07:47:34;70.25;;;33.95;;
52029;SDS011;38043;53.224;6.580;2023-01-25T07:50:00;70.05;;;34.47;;
52029;SDS011;38043;53.224;6.580;2023-01-25T07:52:25;67.10;;;35.08;;
52029;SDS011;38043;53.224;6.580;2023-01-25T07:54:51;68.82;;;34.38;;
52029;SDS011;38043;53.224;6.580;2023-01-25T07:57:16;59.17;;;31.13;;
52029;SDS011;38043;53.224;6.580;2023-01-25T07:59:42;58.13;;;26.92;;
52029;SDS011;38043;53.224;6.580;2023-01-25T08:02:09;59.13;;;30.08;;
52029;SDS011;38043;53.224;6.580;2023-01-25T08:04:36;59.28;;;29.40;;
52029;SDS011;38043;53.224;6.580;2023-01-25T08:07:01;57.40;;;30.95;;
52029;SDS011;38043;53.224;6.580;2023-01-25T08:09:27;53.80;;;28.83;;
52029;SDS011;38043;53.224;6.580;2023-01-25T08:11:56;54.83;;;29.45;;
52029;SDS011;38043;53.224;6.580;2023-01-25T08:14:21;55.83;;;28.73;;
52029;SDS011;38043;53.224;6.580;2023-01-25T08:16:48;56.85;;;29.13;;
52029;SDS011;38043;53.224;6.580;2023-01-25T08:19:14;53.67;;;28.52;;
52029;SDS011;38043;53.224;6.580;2023-01-25T08:21:40;56.65;;;30.88;;
52029;SDS011;38043;53.224;6.580;2023-01-25T08:24:06;56.75;;;30.95;;
52029;SDS011;38043;53.224;6.580;2023-01-25T08:26:33;59.97;;;30.57;;
52029;SDS011;38043;53.224;6.580;2023-01-25T08:29:00;55.65;;;29.60;;
52029;SDS011;38043;53.224;6.580;2023-01-25T08:31:27;57.97;;;30.77;;
52029;SDS011;38043;53.224;6.580;2023-01-25T08:33:54;56.70;;;29.38;;
52029;SDS011;38043;53.224;6.580;2023-01-25T08:36:20;57.75;;;30.77;;
52029;SDS011;38043;53.224;6.580;2023-01-25T08:38:51;58.70;;;30.90;;
52029;SDS011;38043;53.224;6.580;2023-01-25T08:41:22;60.55;;;31.95;;
52029;SDS011;38043;53.224;6.580;2023-01-25T08:43:50;56.67;;;30.75;;
52029;SDS011;38043;53.224;6.580;2023-01-25T08:46:16;57.30;;;29.63;;
52029;SDS011;38043;53.224;6.580;2023-01-25T08:48:42;53.50;;;29.65;;
52029;SDS011;38043;53.224;6.580;2023-01-25T08:51:08;56.13;;;30.25;;
52029;SDS011;38043;53.224;6.580;2023-01-25T08:53:37;56.80;;;30.65;;
52029;SDS011;38043;53.224;6.580;2023-01-25T08:56:03;57.03;;;30.15;;
52029;SDS011;38043;53.224;6.580;2023-01-25T08:58:35;64.38;;;32.38;;
52029;SDS011;38043;53.224;6.580;2023-01-25T09:01:02;58.88;;;30.20;;
52029;SDS011;38043;53.224;6.580;2023-01-25T09:03:29;57.43;;;31.97;;
52029;SDS011;38043;53.224;6.580;2023-01-25T09:05:56;61.63;;;32.65;;
52029;SDS011;38043;53.224;6.580;2023-01-25T09:08:22;56.63;;;29.88;;
52029;SDS011;38043;53.224;6.580;2023-01-25T09:10:47;60.92;;;32.20;;
52029;SDS011;38043;53.224;6.580;2023-01-25T09:13:13;59.35;;;30.00;;
52029;SDS011;38043;53.224;6.580;2023-01-25T09:15:39;61.17;;;31.98;;
52029;SDS011;38043;53.224;6.580;2023-01-25T09:18:04;59.47;;;30.88;;
52029;SDS011;38043;53.224;6.580;2023-01-25T09:20:30;63.83;;;31.10;;
52029;SDS011;38043;53.224;6.580;2023-01-25T09:22:56;65.45;;;31.15;;
52029;SDS011;38043;53.224;6.580;2023-01-25T09:25:21;61.03;;;31.20;;
52029;SDS011;38043;53.224;6.580;2023-01-25T09:27:48;65.15;;;33.03;;
52029;SDS011;38043;53.224;6.580;2023-01-25T09:30:15;64.07;;;32.78;;
52029;SDS011;38043;53.224;6.580;2023-01-25T09:32:41;64.93;;;32.88;;
52029;SDS011;38043;53.224;6.580;2023-01-25T09:35:06;62.28;;;32.90;;
52029;SDS011;38043;53.224;6.580;2023-01-25T09:37:32;63.33;;;31.50;;
52029;SDS011;38043;53.224;6.580;2023-01-25T09:39:58;62.78;;;31.85;;
52029;SDS011;38043;53.224;6.580;2023-01-25T09:42:28;64.05;;;33.20;;
52029;SDS011;38043;53.224;6.580;2023-01-25T09:48:08;66.95;;;32.72;;
52029;SDS011;38043;53.224;6.580;2023-01-25T09:53:48;60.78;;;30.17;;
52029;SDS011;38043;53.224;6.580;2023-01-25T09:56:33;63.38;;;30.65;;
52029;SDS011;38043;53.224;6.580;2023-01-25T09:59:04;61.35;;;30.52;;
52029;SDS011;38043;53.224;6.580;2023-01-25T10:01:50;65.57;;;30.80;;
52029;SDS011;38043;53.224;6.580;2023-01-25T10:04:24;62.25;;;29.90;;
52029;SDS011;38043;53.224;6.580;2023-01-25T10:07:00;63.33;;;31.08;;
52029;SDS011;38043;53.224;6.580;2023-01-25T10:09:41;60.47;;;30.13;;
52029;SDS011;38043;53.224;6.580;2023-01-25T10:12:20;63.85;;;30.52;;
52029;SDS011;38043;53.224;6.580;2023-01-25T10:14:48;63.95;;;32.47;;
52029;SDS011;38043;53.224;6.580;2023-01-25T10:22:32;63.92;;;29.20;;
52029;SDS011;38043;53.224;6.580;2023-01-25T10:27:56;63.53;;;30.33;;
52029;SDS011;38043;53.224;6.580;2023-01-25T10:30:34;63.15;;;30.35;;
52029;SDS011;38043;53.224;6.580;2023-01-25T10:33:10;63.00;;;31.00;;
52029;SDS011;38043;53.224;6.580;2023-01-25T10:35:40;61.47;;;30.10;;
52029;SDS011;38043;53.224;6.580;2023-01-25T10:38:15;66.25;;;31.27;;
52029;SDS011;38043;53.224;6.580;2023-01-25T10:40:47;63.10;;;29.40;;
52029;SDS011;38043;53.224;6.580;2023-01-25T10:43:17;63.30;;;30.40;;
52029;SDS011;38043;53.224;6.580;2023-01-25T10:45:45;68.00;;;31.02;;
52029;SDS011;38043;53.224;6.580;2023-01-25T10:48:19;67.55;;;30.42;;
52029;SDS011;38043;53.224;6.580;2023-01-25T10:50:52;64.45;;;29.95;;
52029;SDS011;38043;53.224;6.580;2023-01-25T10:53:32;63.08;;;30.35;;
52029;SDS011;38043;53.224;6.580;2023-01-25T10:56:41;65.10;;;30.63;;
52029;SDS011;38043;53.224;6.580;2023-01-25T10:58:51;64.38;;;29.73;;
52029;SDS011;38043;53.224;6.580;2023-01-25T11:01:30;62.57;;;29.77;;
52029;SDS011;38043;53.224;6.580;2023-01-25T11:03:57;62.47;;;30.08;;
52029;SDS011;38043;53.224;6.580;2023-01-25T11:06:28;67.70;;;32.20;;
52029;SDS011;38043;53.224;6.580;2023-01-25T11:08:56;66.57;;;31.15;;
52029;SDS011;38043;53.224;6.580;2023-01-25T11:11:23;63.78;;;29.95;;
52029;SDS011;38043;53.224;6.580;2023-01-25T11:14:00;61.72;;;28.85;;
52029;SDS011;38043;53.224;6.580;2023-01-25T11:16:36;64.78;;;30.55;;
52029;SDS011;38043;53.224;6.580;2023-01-25T11:19:23;69.63;;;32.03;;
52029;SDS011;38043;53.224;6.580;2023-01-25T11:22:01;67.47;;;31.73;;
52029;SDS011;38043;53.224;6.580;2023-01-25T11:24:29;68.78;;;31.42;;
52029;SDS011;38043;53.224;6.580;2023-01-25T11:27:16;64.85;;;29.85;;
52029;SDS011;38043;53.224;6.580;2023-01-25T11:30:05;64.97;;;28.92;;
52029;SDS011;38043;53.224;6.580;2023-01-25T11:35:05;61.20;;;28.73;;
52029;SDS011;38043;53.224;6.580;2023-01-25T11:37:41;63.60;;;29.73;;
52029;SDS011;38043;53.224;6.580;2023-01-25T11:40:28;66.20;;;30.48;;
52029;SDS011;38043;53.224;6.580;2023-01-25T11:45:39;70.93;;;31.92;;
52029;SDS011;38043;53.224;6.580;2023-01-25T11:56:14;67.55;;;30.13;;
52029;SDS011;38043;53.224;6.580;2023-01-25T11:58:59;69.13;;;29.83;;
52029;SDS011;38043;53.224;6.580;2023-01-25T12:12:11;68.70;;;30.02;;
52029;SDS011;38043;53.224;6.580;2023-01-25T12:15:05;70.07;;;29.25;;
52029;SDS011;38043;53.224;6.580;2023-01-25T12:21:32;67.20;;;27.55;;
52029;SDS011;38043;53.224;6.580;2023-01-25T12:23:40;70.30;;;29.13;;
52029;SDS011;38043;53.224;6.580;2023-01-25T12:26:23;67.13;;;29.73;;
52029;SDS011;38043;53.224;6.580;2023-01-25T12:33:58;74.68;;;31.67;;
52029;SDS011;38043;53.224;6.580;2023-01-25T12:36:47;67.47;;;29.38;;
52029;SDS011;38043;53.224;6.580;2023-01-25T12:39:31;69.95;;;29.58;;
52029;SDS011;38043;53.224;6.580;2023-01-25T12:42:11;68.65;;;28.70;;
52029;SDS011;38043;53.224;6.580;2023-01-25T12:44:49;73.70;;;28.10;;
52029;SDS011;38043;53.224;6.580;2023-01-25T12:47:31;64.25;;;28.02;;
52029;SDS011;38043;53.224;6.580;2023-01-25T12:50:15;70.43;;;29.98;;
52029;SDS011;38043;53.224;6.580;2023-01-25T12:52:55;66.05;;;28.02;;
52029;SDS011;38043;53.224;6.580;2023-01-25T12:55:25;67.63;;;28.02;;
52029;SDS011;38043;53.224;6.580;2023-01-25T12:57:57;63.55;;;27.02;;
52029;SDS011;38043;53.224;6.580;2023-01-25T13:03:20;67.60;;;27.77;;
52029;SDS011;38043;53.224;6.580;2023-01-25T13:11:47;71.32;;;26.33;;
52029;SDS011;38043;53.224;6.580;2023-01-25T13:21:53;72.28;;;27.10;;
52029;SDS011;38043;53.224;6.580;2023-01-25T13:32:03;68.75;;;25.92;;
52029;SDS011;38043;53.224;6.580;2023-01-25T13:37:18;73.07;;;28.40;;
52029;SDS011;38043;53.224;6.580;2023-01-25T13:42:28;67.88;;;26.77;;
52029;SDS011;38043;53.224;6.580;2023-01-25T13:44:58;72.63;;;27.67;;
52029;SDS011;38043;53.224;6.580;2023-01-25T13:47:34;70.88;;;26.80;;
52029;SDS011;38043;53.224;6.580;2023-01-25T13:52:55;63.63;;;26.80;;
52029;SDS011;38043;53.224;6.580;2023-01-25T13:55:22;76.75;;;28.02;;
52029;SDS011;38043;53.224;6.580;2023-01-25T13:57:48;73.55;;;27.80;;
52029;SDS011;38043;53.224;6.580;2023-01-25T14:00:15;70.88;;;27.27;;
52029;SDS011;38043;53.224;6.580;2023-01-25T14:02:43;75.03;;;28.38;;
52029;SDS011;38043;53.224;6.580;2023-01-25T14:05:20;73.90;;;27.50;;
52029;SDS011;38043;53.224;6.580;2023-01-25T14:07:48;75.72;;;27.05;;
52029;SDS011;38043;53.224;6.580;2023-01-25T14:10:17;70.53;;;27.02;;
52029;SDS011;38043;53.224;6.580;2023-01-25T14:12:47;75.97;;;28.73;;
52029;SDS011;38043;53.224;6.580;2023-01-25T14:17:42;70.50;;;27.65;;
52029;SDS011;38043;53.224;6.580;2023-01-25T14:20:16;69.55;;;28.38;;
52029;SDS011;38043;53.224;6.580;2023-01-25T14:22:47;72.25;;;26.90;;
52029;SDS011;38043;53.224;6.580;2023-01-25T14:25:15;79.80;;;27.05;;
52029;SDS011;38043;53.224;6.580;2023-01-25T14:27:53;67.97;;;25.05;;
52029;SDS011;38043;53.224;6.580;2023-01-25T14:30:31;68.53;;;26.55;;
52029;SDS011;38043;53.224;6.580;2023-01-25T14:33:01;70.30;;;26.80;;
52029;SDS011;38043;53.224;6.580;2023-01-25T14:35:48;82.72;;;28.50;;
52029;SDS011;38043;53.224;6.580;2023-01-25T14:38:28;80.30;;;27.95;;
52029;SDS011;38043;53.224;6.580;2023-01-25T14:43:32;72.43;;;27.05;;
52029;SDS011;38043;53.224;6.580;2023-01-25T14:46:00;69.60;;;27.38;;
52029;SDS011;38043;53.224;6.580;2023-01-25T14:48:41;75.30;;;29.33;;
52029;SDS011;38043;53.224;6.580;2023-01-25T14:51:11;78.00;;;28.02;;
52029;SDS011;38043;53.224;6.580;2023-01-25T14:53:54;78.85;;;29.10;;
52029;SDS011;38043;53.224;6.580;2023-01-25T14:58:54;79.55;;;28.77;;
52029;SDS011;38043;53.224;6.580;2023-01-25T15:01:26;83.10;;;29.33;;
52029;SDS011;38043;53.224;6.580;2023-01-25T15:03:54;71.50;;;28.02;;
52029;SDS011;38043;53.224;6.580;2023-01-25T15:06:20;82.78;;;30.08;;
52029;SDS011;38043;53.224;6.580;2023-01-25T15:08:46;78.35;;;29.65;;
52029;SDS011;38043;53.224;6.580;2023-01-25T15:11:32;74.88;;;27.88;;
52029;SDS011;38043;53.224;6.580;2023-01-25T15:14:18;78.82;;;29.48;;
52029;SDS011;38043;53.224;6.580;2023-01-25T15:16:46;76.47;;;28.35;;
52029;SDS011;38043;53.224;6.580;2023-01-25T15:19:28;77.07;;;28.55;;
52029;SDS011;38043;53.224;6.580;2023-01-25T15:21:55;73.15;;;28.40;;
52029;SDS011;38043;53.224;6.580;2023-01-25T15:24:23;78.13;;;30.05;;
52029;SDS011;38043;53.224;6.580;2023-01-25T15:26:50;73.05;;;28.85;;
52029;SDS011;38043;53.224;6.580;2023-01-25T15:29:21;83.75;;;33.03;;
52029;SDS011;38043;53.224;6.580;2023-01-25T15:31:50;78.43;;;30.25;;
52029;SDS011;38043;53.224;6.580;2023-01-25T15:34:26;80.25;;;32.03;;
52029;SDS011;38043;53.224;6.580;2023-01-25T15:36:56;87.28;;;31.42;;
52029;SDS011;38043;53.224;6.580;2023-01-25T15:39:22;77.45;;;31.38;;
52029;SDS011;38043;53.224;6.580;2023-01-25T15:41:48;83.60;;;31.95;;
52029;SDS011;38043;53.224;6.580;2023-01-25T15:44:14;85.15;;;32.72;;
52029;SDS011;38043;53.224;6.580;2023-01-25T15:46:42;85.90;;;32.70;;
52029;SDS011;38043;53.224;6.580;2023-01-25T15:49:12;78.28;;;31.80;;
52029;SDS011;38043;53.224;6.580;2023-01-25T15:51:42;81.38;;;31.83;;
52029;SDS011;38043;53.224;6.580;2023-01-25T15:54:08;82.65;;;32.22;;
52029;SDS011;38043;53.224;6.580;2023-01-25T15:56:34;86.05;;;33.30;;
52029;SDS011;38043;53.224;6.580;2023-01-25T15:59:04;77.88;;;31.30;;
52029;SDS011;38043;53.224;6.580;2023-01-25T16:01:31;87.65;;;33.38;;
52029;SDS011;38043;53.224;6.580;2023-01-25T16:03:58;83.82;;;33.33;;
52029;SDS011;38043;53.224;6.580;2023-01-25T16:06:35;87.55;;;32.88;;
52029;SDS011;38043;53.224;6.580;2023-01-25T16:09:03;80.88;;;33.65;;
52029;SDS011;38043;53.224;6.580;2023-01-25T16:11:37;84.43;;;33.83;;
52029;SDS011;38043;53.224;6.580;2023-01-25T16:14:03;90.10;;;33.20;;
52029;SDS011;38043;53.224;6.580;2023-01-25T16:16:28;80.60;;;32.55;;